Time,TemperatureF,DewpointF,PressureIn,WindDirection,WindDirectionDegrees,WindSpeedMPH,WindSpeedGustMPH,Humidity,HourlyPrecipIn,Conditions,Clouds,dailyrainin,SoftwareType,DateUTC
2013-10-26 00:10:00,65.1,43.2,30.01,East,90,5.3,-999.0,45,-99.99,,,0.00,Acu-Link.com,2013-10-26 06:10:00,
2013-10-26 00:25:00,65.1,43.2,30.01,South,180,3.7,-999.0,45,-99.99,,,0.00,Acu-Link.com,2013-10-26 06:25:00,
2013-10-26 00:40:00,65.5,43.6,30.00,SE,135,4.7,-999.0,45,-99.99,,,0.00,Acu-Link.com,2013-10-26 06:40:00,
2013-10-26 00:55:00,64.9,43.0,30.00,ESE,112,0.0,-999.0,45,-99.99,,,0.00,Acu-Link.com,2013-10-26 06:55:00,
2013-10-26 01:11:00,64.2,43.0,30.00,NNE,22,2.2,-999.0,46,-99.99,,,0.00,Acu-Link.com,2013-10-26 07:11:00,
2013-10-26 01:26:00,61.7,43.9,30.00,West,270,1.7,-999.0,52,-99.99,,,0.00,Acu-Link.com,2013-10-26 07:26:00,
2013-10-26 01:41:00,59.9,44.2,30.00,West,270,0.0,-999.0,56,-99.99,,,0.00,Acu-Link.com,2013-10-26 07:41:00,
2013-10-26 01:56:00,59.0,44.2,30.00,WNW,292,0.0,-999.0,58,-99.99,,,0.00,Acu-Link.com,2013-10-26 07:56:00,
2013-10-26 02:12:00,58.1,44.3,29.99,West,270,0.0,-999.0,60,-99.99,,,0.00,Acu-Link.com,2013-10-26 08:12:00,
2013-10-26 02:27:00,57.4,44.9,30.00,WNW,292,7.8,-999.0,63,-99.99,,,0.00,Acu-Link.com,2013-10-26 08:27:00,
2013-10-26 02:42:00,57.6,44.3,30.01,NW,315,2.2,-999.0,61,-99.99,,,0.00,Acu-Link.com,2013-10-26 08:42:00,
2013-10-26 02:57:00,57.0,44.1,30.02,West,270,3.7,-999.0,62,-99.99,,,0.00,Acu-Link.com,2013-10-26 08:57:00,
2013-10-26 03:12:00,56.5,44.1,30.02,West,270,2.2,-999.0,63,-99.99,,,0.00,Acu-Link.com,2013-10-26 09:12:00,
2013-10-26 03:27:00,54.9,44.2,30.02,West,270,2.7,-999.0,67,-99.99,,,0.00,Acu-Link.com,2013-10-26 09:27:00,
2013-10-26 03:42:00,54.1,43.8,30.03,West,270,2.2,-999.0,68,-99.99,,,0.00,Acu-Link.com,2013-10-26 09:42:00,
2013-10-26 03:58:00,53.6,44.1,30.03,East,90,0.0,-999.0,70,-99.99,,,0.00,Acu-Link.com,2013-10-26 09:58:00,
2013-10-26 04:13:00,53.2,44.0,30.02,West,270,0.0,-999.0,71,-99.99,,,0.00,Acu-Link.com,2013-10-26 10:13:00,
2013-10-26 04:28:00,52.0,44.3,30.03,NNE,22,0.0,-999.0,75,-99.99,,,0.00,Acu-Link.com,2013-10-26 10:28:00,
2013-10-26 04:43:00,49.8,44.8,30.04,WSW,247,0.0,-999.0,83,-99.99,,,0.00,Acu-Link.com,2013-10-26 10:43:00,
2013-10-26 04:58:00,49.8,44.8,30.05,SSW,202,0.0,-999.0,83,-99.99,,,0.00,Acu-Link.com,2013-10-26 10:58:00,
2013-10-26 05:14:00,49.6,45.0,30.05,West,270,2.2,-999.0,84,-99.99,,,0.00,Acu-Link.com,2013-10-26 11:14:00,
2013-10-26 05:29:00,49.6,45.0,30.06,NNE,22,0.0,-999.0,84,-99.99,,,0.00,Acu-Link.com,2013-10-26 11:29:00,
2013-10-26 05:44:00,48.9,44.9,30.06,SE,135,0.0,-999.0,86,-99.99,,,0.00,Acu-Link.com,2013-10-26 11:44:00,
2013-10-26 05:59:00,48.4,44.7,30.07,South,180,0.0,-999.0,87,-99.99,,,0.00,Acu-Link.com,2013-10-26 11:59:00,
2013-10-26 06:14:00,48.4,44.1,30.07,ESE,112,0.0,-999.0,85,-99.99,,,0.00,Acu-Link.com,2013-10-26 12:14:00,
2013-10-26 06:29:00,47.7,43.7,30.07,South,180,0.0,-999.0,86,-99.99,,,0.00,Acu-Link.com,2013-10-26 12:29:00,
2013-10-26 06:45:00,46.8,44.0,30.08,East,90,0.0,-999.0,90,-99.99,,,0.00,Acu-Link.com,2013-10-26 12:45:00,
2013-10-26 07:00:00,46.4,43.9,30.07,West,270,0.0,-999.0,91,-99.99,,,0.00,Acu-Link.com,2013-10-26 13:00:00,
2013-10-26 07:15:00,46.9,44.4,30.08,West,270,0.0,-999.0,91,-99.99,,,0.00,Acu-Link.com,2013-10-26 13:15:00,
2013-10-26 07:30:00,46.9,44.1,30.09,South,180,0.0,-999.0,90,-99.99,,,0.00,Acu-Link.com,2013-10-26 13:30:00,
2013-10-26 07:45:00,48.0,44.9,30.09,NNE,22,0.0,-999.0,89,-99.99,,,0.00,Acu-Link.com,2013-10-26 13:45:00,
2013-10-26 08:01:00,51.1,45.8,30.10,West,270,0.0,-999.0,82,-99.99,,,0.00,Acu-Link.com,2013-10-26 14:01:00,
2013-10-26 08:16:00,54.1,46.0,30.09,ESE,112,0.0,-999.0,74,-99.99,,,0.00,Acu-Link.com,2013-10-26 14:16:00,
2013-10-26 08:31:00,55.4,46.2,30.08,NNW,337,2.7,-999.0,71,-99.99,,,0.00,Acu-Link.com,2013-10-26 14:31:00,
2013-10-26 08:46:00,58.3,46.6,30.06,NNE,22,0.0,-999.0,65,-99.99,,,0.00,Acu-Link.com,2013-10-26 14:46:00,
2013-10-26 09:01:00,55.0,46.1,30.04,NNW,337,3.2,-999.0,72,-99.99,,,0.00,Acu-Link.com,2013-10-26 15:01:00,
2013-10-26 09:16:00,56.8,46.7,30.03,NNW,337,3.7,-999.0,69,-99.99,,,0.00,Acu-Link.com,2013-10-26 15:16:00,
2013-10-26 09:31:00,58.6,47.3,30.02,NNW,337,2.2,-999.0,66,-99.99,,,0.00,Acu-Link.com,2013-10-26 15:31:00,
2013-10-26 09:46:00,59.5,46.9,30.02,West,270,2.7,-999.0,63,-99.99,,,0.00,Acu-Link.com,2013-10-26 15:46:00,
2013-10-26 10:01:00,62.1,47.1,30.01,North,0,1.7,-999.0,58,-99.99,,,0.00,Acu-Link.com,2013-10-26 16:01:00,
2013-10-26 10:16:00,62.8,47.8,30.00,SSW,202,2.7,-999.0,58,-99.99,,,0.00,Acu-Link.com,2013-10-26 16:16:00,
2013-10-26 10:32:00,64.2,47.7,29.99,NNW,337,2.2,-999.0,55,-99.99,,,0.00,Acu-Link.com,2013-10-26 16:32:00,
2013-10-26 10:47:00,66.0,47.9,29.98,South,180,2.7,-999.0,52,-99.99,,,0.00,Acu-Link.com,2013-10-26 16:47:00,
2013-10-26 11:02:00,67.5,47.7,29.98,SSW,202,2.7,-999.0,49,-99.99,,,0.00,Acu-Link.com,2013-10-26 17:02:00,
2013-10-26 11:17:00,68.4,46.8,29.98,South,180,3.7,-999.0,46,-99.99,,,0.00,Acu-Link.com,2013-10-26 17:17:00,
2013-10-26 11:32:00,69.8,47.5,29.98,West,270,2.7,-999.0,45,-99.99,,,0.00,Acu-Link.com,2013-10-26 17:32:00,
2013-10-26 11:47:00,70.7,47.1,29.98,NNW,337,3.7,-999.0,43,-99.99,,,0.00,Acu-Link.com,2013-10-26 17:47:00,
2013-10-26 12:03:00,70.7,46.5,29.98,ESE,112,3.2,-999.0,42,-99.99,,,0.00,Acu-Link.com,2013-10-26 18:03:00,
2013-10-26 12:18:00,72.0,45.7,29.98,East,90,0.0,-999.0,39,-99.99,,,0.00,Acu-Link.com,2013-10-26 18:18:00,
2013-10-26 12:33:00,73.6,46.4,29.98,SSW,202,0.0,-999.0,38,-99.99,,,0.00,Acu-Link.com,2013-10-26 18:33:00,
2013-10-26 12:48:00,74.8,46.8,29.99,NNW,337,4.2,-999.0,37,-99.99,,,0.00,Acu-Link.com,2013-10-26 18:48:00,
2013-10-26 13:03:00,75.0,45.5,30.01,North,0,2.7,-999.0,35,-99.99,,,0.00,Acu-Link.com,2013-10-26 19:03:00,
2013-10-26 13:18:00,75.4,41.8,30.02,North,0,5.3,-999.0,30,-99.99,,,0.00,Acu-Link.com,2013-10-26 19:18:00,
2013-10-26 13:34:00,75.9,39.5,30.01,NNE,22,5.3,-999.0,27,-99.99,,,0.00,Acu-Link.com,2013-10-26 19:34:00,
2013-10-26 13:49:00,76.6,38.1,30.01,WNW,292,3.7,-999.0,25,-99.99,,,0.00,Acu-Link.com,2013-10-26 19:49:00,
2013-10-26 14:04:00,76.6,38.1,30.00,NE,45,4.7,-999.0,25,-99.99,,,0.00,Acu-Link.com,2013-10-26 20:04:00,
2013-10-26 14:19:00,77.2,37.6,30.00,North,0,4.2,-999.0,24,-99.99,,,0.00,Acu-Link.com,2013-10-26 20:19:00,
2013-10-26 14:34:00,76.8,36.2,30.01,ESE,112,3.2,-999.0,23,-99.99,,,0.00,Acu-Link.com,2013-10-26 20:34:00,
2013-10-26 14:49:00,77.5,36.8,30.01,NNE,22,1.7,-999.0,23,-99.99,,,0.00,Acu-Link.com,2013-10-26 20:49:00,
2013-10-26 15:04:00,77.4,35.6,30.00,NNW,337,4.2,-999.0,22,-99.99,,,0.00,Acu-Link.com,2013-10-26 21:04:00,
2013-10-26 15:20:00,77.9,34.8,30.00,NNE,22,6.3,-999.0,21,-99.99,,,0.00,Acu-Link.com,2013-10-26 21:20:00,
2013-10-26 15:35:00,77.2,34.2,30.00,East,90,5.3,-999.0,21,-99.99,,,0.00,Acu-Link.com,2013-10-26 21:35:00,
2013-10-26 15:50:00,78.1,33.8,30.00,NNE,22,2.7,-999.0,20,-99.99,,,0.00,Acu-Link.com,2013-10-26 21:50:00,
2013-10-26 16:05:00,78.1,31.1,30.00,West,270,2.7,-999.0,18,-99.99,,,0.00,Acu-Link.com,2013-10-26 22:05:00,
2013-10-26 16:20:00,77.9,34.8,30.00,WNW,292,7.8,-999.0,21,-99.99,,,0.00,Acu-Link.com,2013-10-26 22:20:00,
2013-10-26 16:35:00,76.8,33.9,30.00,NE,45,3.7,-999.0,21,-99.99,,,0.00,Acu-Link.com,2013-10-26 22:35:00,
2013-10-26 16:50:00,77.4,34.4,30.00,NNW,337,4.7,-999.0,21,-99.99,,,0.00,Acu-Link.com,2013-10-26 22:50:00,
2013-10-26 17:06:00,76.1,34.5,30.01,NNE,22,4.7,-999.0,22,-99.99,,,0.00,Acu-Link.com,2013-10-26 23:06:00,
2013-10-26 17:21:00,75.7,35.3,30.01,East,90,6.8,-999.0,23,-99.99,,,0.00,Acu-Link.com,2013-10-26 23:21:00,
2013-10-26 17:36:00,75.0,34.7,30.01,ESE,112,3.7,-999.0,23,-99.99,,,0.00,Acu-Link.com,2013-10-26 23:36:00,
2013-10-26 17:51:00,74.3,35.2,30.01,East,90,3.7,-999.0,24,-99.99,,,0.00,Acu-Link.com,2013-10-26 23:51:00,
2013-10-26 18:06:00,75.2,35.9,30.02,ESE,112,3.7,-999.0,24,-99.99,,,0.00,Acu-Link.com,2013-10-27 00:06:00,
2013-10-26 18:22:00,72.7,35.8,30.03,NE,45,3.2,-999.0,26,-99.99,,,0.00,Acu-Link.com,2013-10-27 00:22:00,
2013-10-26 18:37:00,71.6,35.8,30.04,ENE,67,3.2,-999.0,27,-99.99,,,0.00,Acu-Link.com,2013-10-27 00:37:00,
2013-10-26 18:52:00,70.5,36.7,30.05,East,90,1.1,-999.0,29,-99.99,,,0.00,Acu-Link.com,2013-10-27 00:52:00,
2013-10-26 19:07:00,68.9,37.0,30.05,East,90,0.0,-999.0,31,-99.99,,,0.00,Acu-Link.com,2013-10-27 01:07:00,
2013-10-26 19:22:00,67.8,37.6,30.06,East,90,0.0,-999.0,33,-99.99,,,0.00,Acu-Link.com,2013-10-27 01:22:00,
2013-10-26 19:37:00,67.1,37.8,30.06,North,0,1.1,-999.0,34,-99.99,,,0.00,Acu-Link.com,2013-10-27 01:37:00,
2013-10-26 19:53:00,66.2,39.2,30.06,SW,225,0.0,-999.0,37,-99.99,,,0.00,Acu-Link.com,2013-10-27 01:53:00,
2013-10-26 20:08:00,63.9,39.1,30.07,WSW,247,0.0,-999.0,40,-99.99,,,0.00,Acu-Link.com,2013-10-27 02:08:00,
2013-10-26 20:23:00,62.1,39.9,30.08,ESE,112,3.7,-999.0,44,-99.99,,,0.00,Acu-Link.com,2013-10-27 02:23:00,
2013-10-26 20:38:00,67.5,38.9,30.08,East,90,6.3,-999.0,35,-99.99,,,0.00,Acu-Link.com,2013-10-27 02:38:00,
2013-10-26 20:54:00,67.6,39.0,30.08,South,180,3.2,-999.0,35,-99.99,,,0.00,Acu-Link.com,2013-10-27 02:54:00,
2013-10-26 21:09:00,67.6,39.7,30.08,South,180,3.2,-999.0,36,-99.99,,,0.00,Acu-Link.com,2013-10-27 03:09:00,
2013-10-26 21:24:00,66.9,39.8,30.08,SW,225,0.0,-999.0,37,-99.99,,,0.00,Acu-Link.com,2013-10-27 03:24:00,
2013-10-26 21:39:00,66.0,39.7,30.08,SW,225,0.0,-999.0,38,-99.99,,,0.00,Acu-Link.com,2013-10-27 03:39:00,
2013-10-26 21:54:00,66.2,39.8,30.08,WSW,247,1.7,-999.0,38,-99.99,,,0.00,Acu-Link.com,2013-10-27 03:54:00,
2013-10-26 22:10:00,65.7,40.7,30.08,North,0,3.7,-999.0,40,-99.99,,,0.00,Acu-Link.com,2013-10-27 04:10:00,
2013-10-26 22:25:00,66.4,40.7,30.09,SSE,157,2.2,-999.0,39,-99.99,,,0.00,Acu-Link.com,2013-10-27 04:25:00,
2013-10-26 22:40:00,66.0,40.3,30.09,SSE,157,2.2,-999.0,39,-99.99,,,0.00,Acu-Link.com,2013-10-27 04:40:00,
2013-10-26 22:55:00,65.7,40.1,30.09,South,180,2.2,-999.0,39,-99.99,,,0.00,Acu-Link.com,2013-10-27 04:55:00,
2013-10-26 23:11:00,64.6,40.4,30.09,SSW,202,2.2,-999.0,41,-99.99,,,0.00,Acu-Link.com,2013-10-27 05:11:00,
2013-10-26 23:26:00,63.9,40.4,30.09,South,180,4.2,-999.0,42,-99.99,,,0.00,Acu-Link.com,2013-10-27 05:26:00,
2013-10-26 23:41:00,64.2,40.0,30.09,SSW,202,2.2,-999.0,41,-99.99,,,0.00,Acu-Link.com,2013-10-27 05:41:00,
2013-10-26 23:56:00,64.0,39.8,30.09,South,180,3.7,-999.0,41,-99.99,,,0.00,Acu-Link.com,2013-10-27 05:56:00,